createdAt,value
2022-10-17T00:01:06.137Z,5.50
2022-10-17T00:03:34.419Z,4.60
2022-10-17T00:06:07.057Z,4.40
2022-10-17T00:08:35.165Z,6.20
2022-10-17T00:11:06.265Z,5.50
2022-10-17T00:13:35.148Z,5.83
2022-10-17T00:16:03.295Z,4.17
2022-10-17T00:18:33.793Z,4.90
2022-10-17T00:21:01.862Z,5.00
2022-10-17T00:23:30.574Z,5.40
2022-10-17T00:26:02.789Z,4.30
2022-10-17T00:28:31.065Z,5.20
2022-10-17T00:31:00.203Z,4.80
2022-10-17T00:33:29.078Z,5.23
2022-10-17T00:36:06.393Z,4.90
2022-10-17T00:38:34.818Z,4.70
2022-10-17T00:41:03.193Z,5.47
2022-10-17T00:43:33.152Z,4.13
2022-10-17T00:46:01.217Z,5.67
2022-10-17T00:48:29.521Z,4.80
2022-10-17T00:50:57.778Z,4.90
2022-10-17T00:53:27.362Z,4.57
2022-10-17T00:55:55.808Z,5.90
2022-10-17T00:58:24.059Z,4.80
2022-10-17T01:00:52.145Z,4.77
2022-10-17T01:03:20.283Z,4.43
2022-10-17T01:05:48.708Z,5.57
2022-10-17T01:08:17.049Z,5.17
2022-10-17T01:10:58.688Z,5.33
2022-10-17T01:13:31.709Z,4.90
2022-10-17T01:16:11.311Z,4.47
2022-10-17T01:18:52.609Z,4.80
2022-10-17T01:21:41.422Z,4.90
2022-10-17T01:24:38.395Z,4.77
2022-10-17T01:27:30.749Z,4.93
2022-10-17T01:30:33.593Z,4.60
2022-10-17T01:33:10.597Z,4.57
2022-10-17T01:35:43.170Z,5.00
2022-10-17T01:38:15.990Z,5.20
2022-10-17T01:40:48.982Z,4.80
2022-10-17T01:43:22.733Z,5.70
2022-10-17T01:45:54.808Z,4.80
2022-10-17T01:48:28.194Z,4.90
2022-10-17T01:51:02.795Z,4.70
2022-10-17T01:53:35.108Z,4.83
2022-10-17T01:56:07.768Z,4.90
2022-10-17T01:58:42.817Z,4.37
2022-10-17T02:01:13.577Z,5.17
2022-10-17T02:03:45.091Z,4.20
2022-10-17T02:06:13.418Z,5.00
2022-10-17T02:08:43.380Z,5.13
2022-10-17T02:11:16.539Z,4.87
2022-10-17T02:14:07.771Z,4.90
2022-10-17T02:16:40.195Z,4.53
2022-10-17T02:19:32.093Z,5.30
2022-10-17T02:22:13.526Z,5.00
2022-10-17T02:24:49.133Z,5.07
2022-10-17T02:27:26.409Z,4.90
2022-10-17T02:30:02.706Z,4.87
2022-10-17T02:32:38.601Z,5.50
2022-10-17T02:35:12.430Z,4.70
2022-10-17T02:37:43.264Z,4.30
2022-10-17T02:40:14.839Z,4.57
2022-10-17T02:42:46.265Z,4.60
2022-10-17T02:45:15.979Z,4.43
2022-10-17T02:47:52.556Z,5.47
2022-10-17T02:50:25.734Z,4.97
2022-10-17T02:52:57.912Z,5.20
2022-10-17T02:55:31.518Z,4.90
2022-10-17T02:58:04.007Z,4.53
2022-10-17T03:00:33.937Z,5.10
2022-10-17T03:03:02.224Z,4.93
2022-10-17T03:05:31.631Z,5.00
2022-10-17T03:07:59.728Z,5.20
2022-10-17T03:10:27.891Z,4.53
2022-10-17T03:12:55.957Z,4.70
2022-10-17T03:15:24.015Z,4.93
2022-10-17T03:17:52.120Z,5.00
2022-10-17T03:20:20.344Z,4.67
2022-10-17T03:22:49.843Z,5.07
2022-10-17T03:25:17.929Z,4.90
2022-10-17T03:27:46.197Z,5.07
2022-10-17T03:30:14.475Z,5.67
2022-10-17T03:32:42.511Z,4.70
2022-10-17T03:35:14.841Z,4.63
2022-10-17T03:37:43.358Z,5.20
2022-10-17T03:40:13.121Z,5.47
2022-10-17T03:42:41.212Z,5.30
2022-10-17T03:45:09.874Z,5.67
2022-10-17T03:47:38.155Z,5.00
2022-10-17T03:50:07.570Z,4.87
2022-10-17T03:52:35.613Z,4.90
2022-10-17T03:55:03.661Z,4.43
2022-10-17T03:57:33.154Z,5.17
2022-10-17T04:00:01.396Z,4.60
2022-10-17T04:02:29.422Z,5.03
2022-10-17T04:04:57.564Z,4.40
2022-10-17T04:09:54.768Z,4.73
2022-10-17T04:12:22.859Z,5.47
2022-10-17T04:14:52.453Z,5.13
2022-10-17T04:17:20.504Z,5.17
2022-10-17T04:19:50.432Z,5.60
2022-10-17T04:22:18.523Z,4.80
2022-10-17T04:24:46.651Z,4.77
2022-10-17T04:27:14.961Z,4.93
2022-10-17T04:29:44.047Z,4.50
2022-10-17T04:32:13.459Z,4.63
2022-10-17T04:34:41.743Z,4.93
2022-10-17T04:37:09.801Z,4.60
2022-10-17T04:39:37.889Z,4.00
2022-10-17T04:42:05.953Z,4.20
2022-10-17T04:44:35.609Z,4.60
2022-10-17T04:47:03.740Z,4.03
2022-10-17T04:49:33.188Z,4.97
2022-10-17T04:52:01.316Z,3.77
2022-10-17T04:54:29.391Z,4.13
2022-10-17T04:56:57.476Z,4.33
2022-10-17T04:59:25.874Z,4.00
2022-10-17T05:01:54.145Z,4.47
2022-10-17T05:04:24.717Z,4.47
2022-10-17T05:06:54.690Z,4.73
2022-10-17T05:09:22.723Z,3.90
2022-10-17T05:11:50.937Z,4.10
2022-10-17T05:14:18.999Z,4.40
2022-10-17T05:16:47.135Z,4.13
2022-10-17T05:19:15.541Z,4.70
2022-10-17T05:21:43.652Z,4.33
2022-10-17T05:24:15.626Z,4.20
2022-10-17T05:26:43.840Z,4.87
2022-10-17T05:29:12.191Z,4.80
2022-10-17T05:31:40.315Z,4.13
2022-10-17T05:34:11.542Z,4.40
2022-10-17T05:36:42.032Z,4.50
2022-10-17T05:39:10.200Z,4.83
2022-10-17T05:41:39.675Z,4.80
2022-10-17T05:44:07.787Z,5.97
2022-10-17T05:46:35.938Z,4.37
2022-10-17T05:49:14.684Z,5.20
2022-10-17T05:51:52.153Z,5.00
2022-10-17T05:54:20.310Z,4.80
2022-10-17T05:56:53.081Z,5.00
2022-10-17T05:59:21.312Z,4.50
2022-10-17T06:01:49.531Z,4.50
2022-10-17T06:04:17.916Z,4.23
2022-10-17T06:06:46.136Z,4.60
2022-10-17T06:09:14.345Z,4.10
2022-10-17T06:11:42.359Z,4.90
2022-10-17T06:14:11.934Z,5.30
2022-10-17T06:16:40.007Z,5.30
2022-10-17T06:19:08.103Z,5.03
2022-10-17T06:21:37.898Z,5.60
2022-10-17T06:24:06.212Z,5.37
2022-10-17T06:26:34.854Z,5.37
2022-10-17T06:29:03.086Z,4.63
2022-10-17T06:31:32.623Z,4.73
2022-10-17T06:34:00.689Z,4.70
2022-10-17T06:36:30.720Z,5.63
2022-10-17T06:38:58.794Z,5.57
2022-10-17T06:41:26.899Z,5.47
2022-10-17T06:43:55.157Z,4.93
2022-10-17T06:46:25.614Z,5.30
2022-10-17T06:48:55.165Z,5.30
2022-10-17T06:51:23.244Z,5.37
2022-10-17T06:53:51.536Z,5.60
2022-10-17T06:56:19.591Z,5.70
2022-10-17T06:58:49.554Z,6.27
2022-10-17T07:01:17.641Z,5.20
2022-10-17T07:03:50.113Z,5.43
2022-10-17T07:06:19.756Z,6.20
2022-10-17T07:08:51.665Z,4.30
2022-10-17T07:11:22.721Z,5.33
2022-10-17T07:13:51.289Z,5.33
2022-10-17T07:16:19.494Z,5.40
2022-10-17T07:18:50.460Z,5.00
2022-10-17T07:21:20.075Z,5.23
2022-10-17T07:23:48.130Z,5.20
2022-10-17T07:26:18.419Z,5.30
2022-10-17T07:28:48.791Z,5.43
2022-10-17T07:31:19.485Z,4.77
2022-10-17T07:33:47.896Z,4.97
2022-10-17T07:36:16.869Z,5.23
2022-10-17T07:38:46.360Z,5.20
2022-10-17T07:41:19.216Z,6.70
2022-10-17T07:43:49.985Z,4.60
2022-10-17T07:46:19.214Z,5.10
2022-10-17T07:48:47.320Z,6.00
2022-10-17T07:51:15.386Z,4.70
2022-10-17T07:53:47.962Z,5.50
2022-10-17T07:56:18.862Z,4.90
2022-10-17T07:58:48.400Z,4.70
2022-10-17T08:01:17.792Z,4.47
2022-10-17T08:03:48.613Z,4.93
2022-10-17T08:06:16.840Z,4.60
2022-10-17T08:08:45.618Z,4.17
2022-10-17T08:11:16.038Z,5.47
2022-10-17T08:13:45.628Z,5.43
2022-10-17T08:16:14.538Z,5.57
2022-10-17T08:18:44.253Z,5.40
2022-10-17T08:21:14.549Z,4.70
2022-10-17T08:23:42.700Z,6.10
2022-10-17T08:26:13.633Z,5.93
2022-10-17T08:28:42.514Z,5.63
2022-10-17T08:31:14.008Z,5.90
2022-10-17T08:33:42.786Z,5.60
2022-10-17T08:36:13.606Z,5.10
2022-10-17T08:38:43.717Z,5.20
2022-10-17T08:41:19.012Z,5.40
2022-10-17T08:44:04.027Z,5.70
2022-10-17T08:46:36.901Z,5.33
2022-10-17T08:49:12.262Z,4.40
2022-10-17T08:51:45.951Z,5.93
2022-10-17T08:54:19.135Z,5.07
2022-10-17T08:56:51.334Z,5.13
2022-10-17T08:59:21.611Z,5.20
2022-10-17T09:01:56.347Z,4.67
2022-10-17T09:04:48.896Z,5.27
2022-10-17T09:07:23.627Z,5.17
2022-10-17T09:09:58.986Z,5.13
2022-10-17T09:12:35.770Z,5.30
2022-10-17T09:15:32.483Z,4.60
2022-10-17T09:18:08.950Z,4.90
2022-10-17T09:20:41.663Z,5.07
2022-10-17T09:23:15.015Z,5.20
2022-10-17T09:25:45.308Z,5.20
2022-10-17T09:28:19.540Z,4.53
2022-10-17T09:30:51.716Z,4.80
2022-10-17T09:33:34.630Z,5.13
2022-10-17T09:36:05.797Z,5.47
2022-10-17T09:38:40.893Z,5.47
2022-10-17T09:41:42.942Z,5.73
2022-10-17T09:44:25.252Z,6.20
2022-10-17T09:47:10.140Z,6.40
2022-10-17T09:49:41.857Z,5.37
2022-10-17T09:52:15.719Z,5.40
2022-10-17T09:54:46.791Z,5.20
2022-10-17T09:57:16.472Z,5.10
2022-10-17T09:59:46.478Z,5.13
2022-10-17T10:02:21.172Z,4.70
2022-10-17T10:05:07.059Z,4.80
2022-10-17T10:07:38.529Z,4.90
2022-10-17T10:10:24.162Z,5.97
2022-10-17T10:13:05.658Z,5.50
2022-10-17T10:15:37.841Z,6.23
2022-10-17T10:21:11.173Z,5.77
2022-10-17T10:23:41.271Z,4.80
2022-10-17T10:26:22.957Z,4.73
2022-10-17T10:29:01.595Z,4.30
2022-10-17T10:31:33.490Z,4.63
2022-10-17T10:34:04.291Z,5.20
2022-10-17T10:36:48.388Z,4.80
2022-10-17T10:39:36.111Z,4.23
2022-10-17T10:42:08.048Z,4.13
2022-10-17T10:44:40.749Z,4.10
2022-10-17T10:47:15.869Z,5.10
2022-10-17T10:49:44.513Z,4.63
2022-10-17T10:52:24.024Z,4.70
2022-10-17T10:54:59.250Z,5.23
2022-10-17T10:57:32.202Z,4.80
2022-10-17T11:00:08.287Z,4.70
2022-10-17T11:02:41.644Z,4.40
2022-10-17T11:05:16.838Z,4.57
2022-10-17T11:07:52.493Z,4.50
2022-10-17T11:10:26.644Z,4.07
2022-10-17T11:13:01.422Z,4.30
2022-10-17T11:15:37.059Z,5.30
2022-10-17T11:18:07.984Z,4.83
2022-10-17T11:20:45.939Z,4.73
2022-10-17T11:23:21.727Z,4.20
2022-10-17T11:25:52.303Z,3.60
2022-10-17T11:28:22.700Z,3.87
2022-10-17T11:30:56.559Z,4.73
2022-10-17T11:33:30.976Z,4.60
2022-10-17T11:36:04.739Z,4.40
2022-10-17T11:38:43.157Z,3.67
2022-10-17T11:41:16.398Z,4.47
2022-10-17T11:43:51.422Z,4.70
2022-10-17T11:46:24.469Z,4.63
2022-10-17T11:49:15.042Z,4.40
2022-10-17T11:52:05.939Z,4.73
2022-10-17T11:54:40.498Z,4.30
2022-10-17T11:57:32.746Z,5.17
2022-10-17T12:00:20.551Z,4.83
2022-10-17T12:02:59.066Z,4.17
2022-10-17T12:05:34.889Z,6.60
2022-10-17T12:08:10.843Z,4.90
2022-10-17T12:11:01.942Z,4.60
2022-10-17T12:13:51.976Z,4.53
2022-10-17T12:16:46.860Z,5.63
2022-10-17T12:19:28.595Z,4.33
2022-10-17T12:21:59.159Z,5.23
2022-10-17T12:24:42.318Z,5.00
2022-10-17T12:27:48.688Z,4.87
2022-10-17T12:30:21.445Z,5.40
2022-10-17T12:33:21.978Z,4.97
2022-10-17T12:35:51.903Z,4.60
2022-10-17T12:38:25.927Z,4.40
2022-10-17T12:41:04.605Z,4.90
2022-10-17T12:43:53.795Z,4.53
2022-10-17T12:46:48.440Z,5.73
2022-10-17T12:49:25.590Z,4.97
2022-10-17T12:52:22.163Z,4.23
2022-10-17T12:55:00.487Z,4.80
2022-10-17T12:57:40.743Z,4.30
2022-10-17T13:00:18.395Z,4.87
2022-10-17T13:02:49.518Z,4.53
2022-10-17T13:05:33.748Z,5.20
2022-10-17T13:08:06.461Z,4.70
2022-10-17T13:10:40.725Z,4.73
2022-10-17T13:13:18.222Z,4.33
2022-10-17T13:15:50.092Z,4.60
2022-10-17T13:18:25.087Z,4.90
2022-10-17T13:20:58.695Z,4.90
2022-10-17T13:23:30.365Z,4.37
2022-10-17T13:26:20.491Z,5.20
2022-10-17T13:29:02.869Z,4.97
2022-10-17T13:31:33.153Z,4.43
2022-10-17T13:34:04.499Z,4.67
2022-10-17T13:36:33.963Z,4.63
2022-10-17T13:39:12.377Z,4.70
2022-10-17T13:41:43.555Z,4.60
2022-10-17T13:44:16.746Z,4.50
2022-10-17T13:46:45.806Z,4.60
2022-10-17T13:49:23.188Z,4.57
2022-10-17T13:51:55.368Z,4.67
2022-10-17T13:54:40.352Z,5.00
2022-10-17T13:57:19.897Z,5.30
2022-10-17T13:59:50.565Z,4.33
2022-10-17T14:02:21.567Z,4.43
2022-10-17T14:05:18.302Z,4.10
2022-10-17T14:08:10.717Z,4.10
2022-10-17T14:10:41.268Z,4.20
2022-10-17T14:13:21.124Z,4.60
2022-10-17T14:15:49.577Z,4.40
2022-10-17T14:18:22.510Z,4.87
2022-10-17T14:23:43.864Z,5.30
2022-10-17T14:26:15.427Z,5.80
2022-10-17T14:28:46.121Z,4.90
2022-10-17T14:31:36.217Z,5.43
2022-10-17T14:34:06.660Z,4.80
2022-10-17T14:36:42.125Z,4.70
2022-10-17T14:39:21.565Z,4.57
2022-10-17T14:41:50.704Z,4.43
2022-10-17T14:44:22.831Z,4.40
2022-10-17T14:46:55.345Z,5.33
2022-10-17T14:49:34.890Z,5.00
2022-10-17T14:52:28.587Z,5.00
2022-10-17T14:54:57.922Z,5.27
2022-10-17T14:57:29.556Z,4.93
2022-10-17T14:59:58.302Z,5.10
2022-10-17T15:02:27.488Z,5.40
2022-10-17T15:04:55.841Z,4.73
2022-10-17T15:07:26.018Z,5.63
2022-10-17T15:09:54.926Z,5.97
2022-10-17T15:12:25.917Z,5.70
2022-10-17T15:14:54.857Z,5.60
2022-10-17T15:17:27.027Z,5.57
2022-10-17T15:19:55.578Z,5.60
2022-10-17T15:22:25.508Z,5.53
2022-10-17T15:24:53.665Z,6.07
2022-10-17T15:27:23.599Z,5.60
2022-10-17T15:29:53.164Z,5.03
2022-10-17T15:32:21.409Z,5.73
2022-10-17T15:34:49.477Z,5.63
2022-10-17T15:37:22.352Z,6.40
2022-10-17T15:39:54.848Z,5.70
2022-10-17T15:42:24.673Z,5.50
2022-10-17T15:44:52.744Z,5.47
2022-10-17T15:47:26.732Z,5.53
2022-10-17T15:49:55.839Z,6.13
2022-10-17T15:52:25.492Z,5.83
2022-10-17T15:54:57.312Z,5.67
2022-10-17T15:57:29.884Z,4.57
2022-10-17T16:00:00.841Z,5.10
2022-10-17T16:02:29.107Z,6.00
2022-10-17T16:04:57.232Z,6.27
2022-10-17T16:07:25.256Z,5.47
2022-10-17T16:09:54.705Z,5.43
2022-10-17T16:12:29.121Z,5.50
2022-10-17T16:14:57.441Z,5.40
2022-10-17T16:17:25.598Z,5.37
2022-10-17T16:19:53.733Z,5.47
2022-10-17T16:22:28.122Z,5.30
2022-10-17T16:24:59.490Z,5.07
2022-10-17T16:27:27.951Z,5.93
2022-10-17T16:29:55.973Z,5.30
2022-10-17T16:32:24.190Z,4.97
2022-10-17T16:34:52.310Z,5.97
2022-10-17T16:37:20.376Z,5.83
2022-10-17T16:39:52.538Z,5.33
2022-10-17T16:42:22.651Z,5.20
2022-10-17T16:44:51.413Z,6.10
2022-10-17T16:47:20.654Z,4.80
2022-10-17T16:49:48.858Z,5.77
2022-10-17T16:52:17.160Z,6.33
2022-10-17T16:54:45.433Z,5.73
2022-10-17T16:57:13.476Z,5.83
2022-10-17T16:59:43.021Z,5.70
2022-10-17T17:02:12.136Z,6.00
2022-10-17T17:04:40.394Z,12.20
2022-10-17T17:07:08.474Z,18.70
2022-10-17T17:09:36.579Z,22.83
2022-10-17T17:12:04.783Z,18.20
2022-10-17T17:14:33.175Z,11.20
2022-10-17T17:17:02.769Z,10.33
2022-10-17T17:19:30.904Z,8.10
2022-10-17T17:21:58.992Z,7.73
2022-10-17T17:24:27.029Z,6.50
2022-10-17T17:26:57.421Z,7.20
2022-10-17T17:29:26.459Z,6.90
2022-10-17T17:31:54.626Z,6.47
2022-10-17T17:34:24.092Z,6.00
2022-10-17T17:36:52.186Z,5.93
2022-10-17T17:39:20.333Z,6.30
2022-10-17T17:41:48.468Z,6.00
2022-10-17T17:44:17.153Z,6.17
2022-10-17T17:46:46.064Z,4.80
2022-10-17T17:49:14.418Z,5.23
2022-10-17T17:51:46.612Z,6.50
2022-10-17T17:54:15.316Z,6.23
2022-10-17T17:56:43.678Z,5.80
2022-10-17T17:59:14.119Z,6.70
2022-10-17T18:01:42.525Z,6.63
2022-10-17T18:04:11.171Z,7.10
2022-10-17T18:06:40.352Z,6.10
2022-10-17T18:09:10.744Z,6.10
2022-10-17T18:11:39.164Z,7.73
2022-10-17T18:14:09.017Z,6.10
2022-10-17T18:16:38.271Z,6.30
2022-10-17T18:19:09.024Z,6.80
2022-10-17T18:21:37.803Z,6.03
2022-10-17T18:24:06.958Z,7.47
2022-10-17T18:26:36.756Z,6.90
2022-10-17T18:29:05.702Z,6.70
2022-10-17T18:31:36.184Z,7.30
2022-10-17T18:34:07.032Z,6.90
2022-10-17T18:36:37.285Z,7.00
2022-10-17T18:39:06.369Z,7.33
2022-10-17T18:41:34.688Z,7.30
2022-10-17T18:44:04.629Z,7.73
2022-10-17T18:46:40.617Z,6.57
2022-10-17T18:49:11.395Z,6.40
2022-10-17T18:51:39.859Z,7.50
2022-10-17T18:54:12.478Z,7.00
2022-10-17T18:56:40.677Z,7.10
2022-10-17T18:59:10.383Z,7.50
2022-10-17T19:01:38.782Z,6.80
2022-10-17T19:04:06.947Z,7.20
2022-10-17T19:06:35.114Z,7.10
2022-10-17T19:09:05.248Z,6.63
2022-10-17T19:11:35.104Z,6.37
2022-10-17T19:14:05.902Z,6.80
2022-10-17T19:16:38.761Z,5.87
2022-10-17T19:19:09.131Z,5.70
2022-10-17T19:21:37.247Z,6.40
2022-10-17T19:24:08.000Z,6.53
2022-10-17T19:26:37.807Z,6.77
2022-10-17T19:29:07.088Z,6.40
2022-10-17T19:31:37.300Z,6.23
2022-10-17T19:34:05.525Z,6.30
2022-10-17T19:36:35.673Z,6.00
2022-10-17T19:39:06.261Z,7.10
2022-10-17T19:41:36.073Z,5.40
2022-10-17T19:44:06.472Z,6.53
2022-10-17T19:46:36.295Z,6.20
2022-10-17T19:49:05.502Z,6.23
2022-10-17T19:51:34.091Z,5.87
2022-10-17T19:54:02.789Z,6.80
2022-10-17T19:56:33.938Z,5.33
2022-10-17T19:59:02.615Z,6.60
2022-10-17T20:01:33.410Z,5.90
2022-10-17T20:04:03.475Z,6.00
2022-10-17T20:06:31.840Z,5.23
2022-10-17T20:09:00.237Z,6.47
2022-10-17T20:11:30.049Z,4.90
2022-10-17T20:13:58.923Z,4.73
2022-10-17T20:16:29.662Z,5.17
2022-10-17T20:19:08.379Z,5.63
2022-10-17T20:21:39.492Z,5.50
2022-10-17T20:24:10.098Z,6.30
2022-10-17T20:26:39.801Z,5.70
2022-10-17T20:29:11.223Z,6.10
2022-10-17T20:31:40.622Z,6.10
2022-10-17T20:34:13.265Z,5.83
2022-10-17T20:36:41.521Z,6.33
2022-10-17T20:39:11.275Z,5.10
2022-10-17T20:41:39.623Z,5.30
2022-10-17T20:44:08.030Z,5.67
2022-10-17T20:46:41.577Z,6.27
2022-10-17T20:49:16.352Z,5.80
2022-10-17T20:51:44.970Z,5.73
2022-10-17T20:54:13.511Z,5.20
2022-10-17T20:56:41.626Z,5.73
2022-10-17T20:59:13.788Z,5.33
2022-10-17T21:01:42.271Z,6.00
2022-10-17T21:04:40.706Z,4.50
2022-10-17T21:07:00.412Z,4.77
2022-10-17T21:09:28.603Z,5.07
2022-10-17T21:11:56.962Z,5.57
2022-10-17T21:14:26.171Z,5.50
2022-10-17T21:16:54.585Z,6.37
2022-10-17T21:19:23.005Z,5.27
2022-10-17T21:21:51.866Z,5.57
2022-10-17T21:24:21.401Z,5.13
2022-10-17T21:26:55.584Z,5.10
2022-10-17T21:29:24.775Z,5.47
2022-10-17T21:31:53.736Z,6.50
2022-10-17T21:34:24.670Z,5.57
2022-10-17T21:36:53.657Z,5.40
2022-10-17T21:39:24.894Z,5.00
2022-10-17T21:41:53.486Z,5.43
2022-10-17T21:44:25.110Z,5.50
2022-10-17T21:46:54.132Z,5.20
2022-10-17T21:49:24.283Z,5.07
2022-10-17T21:51:53.329Z,4.80
2022-10-17T21:54:24.245Z,4.63
2022-10-17T21:56:52.736Z,4.90
2022-10-17T21:59:21.031Z,5.27
2022-10-17T22:01:49.194Z,5.30
2022-10-17T22:04:19.405Z,5.40
2022-10-17T22:06:51.243Z,4.60
2022-10-17T22:09:24.589Z,4.93
2022-10-17T22:11:55.843Z,4.83
2022-10-17T22:14:25.724Z,5.07
2022-10-17T22:16:53.931Z,4.97
2022-10-17T22:19:24.549Z,4.87
2022-10-17T22:21:52.810Z,4.73
2022-10-17T22:24:23.535Z,4.80
2022-10-17T22:26:51.943Z,5.03
2022-10-17T22:29:20.297Z,5.10
2022-10-17T22:31:48.876Z,4.47
2022-10-17T22:34:18.454Z,5.03
2022-10-17T22:36:47.834Z,5.43
2022-10-17T22:39:16.231Z,4.83
2022-10-17T22:41:45.851Z,4.43
2022-10-17T22:44:14.135Z,5.47
2022-10-17T22:46:42.316Z,5.43
2022-10-17T22:49:10.542Z,4.50
2022-10-17T22:51:38.770Z,5.00
2022-10-17T22:54:06.978Z,4.70
2022-10-17T22:56:35.084Z,4.80
2022-10-17T22:59:04.919Z,4.27
2022-10-17T23:01:33.225Z,4.30
2022-10-17T23:04:01.480Z,4.43
2022-10-17T23:06:29.683Z,4.70
2022-10-17T23:08:57.827Z,5.10
2022-10-17T23:11:26.125Z,3.57
2022-10-17T23:13:54.217Z,4.50
2022-10-17T23:16:23.720Z,4.80
2022-10-17T23:18:51.838Z,5.20
2022-10-17T23:21:20.053Z,4.37
2022-10-17T23:23:48.137Z,4.00
2022-10-17T23:26:16.408Z,4.10
2022-10-17T23:28:44.793Z,5.00
2022-10-17T23:31:16.686Z,4.13
2022-10-17T23:33:47.531Z,4.10
2022-10-17T23:36:17.441Z,3.73
2022-10-17T23:38:46.941Z,4.10
2022-10-17T23:41:15.988Z,3.23
2022-10-17T23:43:44.709Z,3.50
2022-10-17T23:46:13.962Z,3.90
2022-10-17T23:48:42.440Z,3.63
2022-10-17T23:51:12.671Z,3.53
2022-10-17T23:53:41.742Z,4.60
2022-10-17T23:56:11.489Z,3.90
2022-10-17T23:58:40.154Z,3.60
